To NAV CANADA Home Page Login to a new session Search on AWWS site Disclaimer Vers la page française équivalente Tips FAQ What's new on the site To the Forecasts and Observations / NOTAM section To "File a Flight Plan" website Publications and other links Update of the User's profile FIC Telephone Numbers My Weather Data Folder Route Weather Data Regional Weather Data Local Weather Data To the Forecasts and Observations / NOTAM section
Request Generated 10/19/2018 at 16:02:58 UTC . Weather information available at that time is displayed.

METAR/TAF

CAPE PARRY NT/AUTO OBS    

METAR CZCP 191600Z AUTO 14014KT ////SM //// BKN080 OVC090 M09/M10 A3008=
METAR CZCP 191500Z AUTO 14012KT ////SM //// SCT050 BKN060 OVC075 M11/M12 A3011=
METAR CZCP 191400Z AUTO 16009KT 110V190 ////SM //// FEW045 SCT065 OVC075 M13/M14 A3014=

CZCP - No TAF is issued for this station

Your time UTC time
Weather data provided by Environment Canada and NAV CANADA